sensor_id;sensor_type;location;lat;lon;timestamp;pressure;altitude;pressure_sealevel;temperature;humidity
37972;BME280;23794;48.234;8.344;2023-02-14T00:00:26;95945.97;;;-1.77;79.63
37972;BME280;23794;48.234;8.344;2023-02-14T00:02:53;95944.94;;;-1.87;79.95
37972;BME280;23794;48.234;8.344;2023-02-14T00:05:19;95939.81;;;-1.83;79.48
37972;BME280;23794;48.234;8.344;2023-02-14T00:07:46;95935.25;;;-1.83;79.70
37972;BME280;23794;48.234;8.344;2023-02-14T00:10:12;95941.72;;;-1.89;79.82
37972;BME280;23794;48.234;8.344;2023-02-14T00:12:39;95940.41;;;-1.91;79.90
37972;BME280;23794;48.234;8.344;2023-02-14T00:15:06;95936.09;;;-1.87;79.76
37972;BME280;23794;48.234;8.344;2023-02-14T00:17:48;95943.88;;;-1.86;79.50
37972;BME280;23794;48.234;8.344;2023-02-14T00:20:15;95944.66;;;-1.80;79.26
37972;BME280;23794;48.234;8.344;2023-02-14T00:22:42;95946.00;;;-1.83;79.74
37972;BME280;23794;48.234;8.344;2023-02-14T00:25:09;95950.38;;;-1.92;79.74
37972;BME280;23794;48.234;8.344;2023-02-14T00:27:35;95935.63;;;-1.94;79.93
37972;BME280;23794;48.234;8.344;2023-02-14T00:30:04;95940.47;;;-2.02;80.17
37972;BME280;23794;48.234;8.344;2023-02-14T00:32:31;95934.59;;;-2.04;79.88
37972;BME280;23794;48.234;8.344;2023-02-14T00:34:58;95932.41;;;-2.02;79.85
37972;BME280;23794;48.234;8.344;2023-02-14T00:37:25;95924.88;;;-1.94;79.72
37972;BME280;23794;48.234;8.344;2023-02-14T00:39:51;95930.19;;;-1.89;79.92
37972;BME280;23794;48.234;8.344;2023-02-14T00:42:18;95928.34;;;-1.94;80.29
37972;BME280;23794;48.234;8.344;2023-02-14T00:44:44;95927.25;;;-1.93;80.16
37972;BME280;23794;48.234;8.344;2023-02-14T00:47:11;95924.06;;;-1.95;80.36
37972;BME280;23794;48.234;8.344;2023-02-14T00:49:37;95924.88;;;-2.00;80.24
37972;BME280;23794;48.234;8.344;2023-02-14T00:52:04;95916.00;;;-1.95;80.06
37972;BME280;23794;48.234;8.344;2023-02-14T00:54:31;95927.56;;;-2.00;80.10
37972;BME280;23794;48.234;8.344;2023-02-14T00:56:57;95923.75;;;-1.93;79.80
37972;BME280;23794;48.234;8.344;2023-02-14T00:59:24;95924.34;;;-1.97;80.13
37972;BME280;23794;48.234;8.344;2023-02-14T01:01:51;95921.91;;;-1.98;80.03
37972;BME280;23794;48.234;8.344;2023-02-14T01:04:17;95924.88;;;-2.00;80.25
37972;BME280;23794;48.234;8.344;2023-02-14T01:06:44;95925.13;;;-1.96;80.17
37972;BME280;23794;48.234;8.344;2023-02-14T01:09:11;95918.97;;;-2.02;80.44
37972;BME280;23794;48.234;8.344;2023-02-14T01:11:38;95922.44;;;-1.91;79.75
37972;BME280;23794;48.234;8.344;2023-02-14T01:14:05;95920.56;;;-1.96;80.39
37972;BME280;23794;48.234;8.344;2023-02-14T01:16:32;95913.59;;;-1.97;80.39
37972;BME280;23794;48.234;8.344;2023-02-14T01:18:59;95916.28;;;-2.02;80.60
37972;BME280;23794;48.234;8.344;2023-02-14T01:21:28;95919.56;;;-2.05;80.49
37972;BME280;23794;48.234;8.344;2023-02-14T01:23:57;95923.31;;;-2.06;80.74
37972;BME280;23794;48.234;8.344;2023-02-14T01:26:25;95918.72;;;-2.05;80.69
37972;BME280;23794;48.234;8.344;2023-02-14T01:28:51;95922.78;;;-2.03;80.66
37972;BME280;23794;48.234;8.344;2023-02-14T01:31:23;95918.13;;;-1.92;79.88
37972;BME280;23794;48.234;8.344;2023-02-14T01:33:52;95915.47;;;-1.97;80.16
37972;BME280;23794;48.234;8.344;2023-02-14T01:36:25;95922.47;;;-2.01;80.38
37972;BME280;23794;48.234;8.344;2023-02-14T01:39:03;95916.38;;;-2.12;81.10
37972;BME280;23794;48.234;8.344;2023-02-14T01:41:32;95916.66;;;-2.19;81.31
37972;BME280;23794;48.234;8.344;2023-02-14T01:46:28;95915.56;;;-2.13;81.12
37972;BME280;23794;48.234;8.344;2023-02-14T01:49:01;95916.91;;;-2.10;81.11
37972;BME280;23794;48.234;8.344;2023-02-14T01:51:30;95916.91;;;-2.10;80.98
37972;BME280;23794;48.234;8.344;2023-02-14T01:53:58;95907.78;;;-2.14;81.39
37972;BME280;23794;48.234;8.344;2023-02-14T01:56:35;95903.97;;;-2.08;81.30
37972;BME280;23794;48.234;8.344;2023-02-14T01:59:07;95909.09;;;-2.06;81.19
37972;BME280;23794;48.234;8.344;2023-02-14T02:01:36;95902.91;;;-2.07;81.04
37972;BME280;23794;48.234;8.344;2023-02-14T02:04:15;95906.16;;;-2.10;81.17
37972;BME280;23794;48.234;8.344;2023-02-14T02:06:54;95904.03;;;-2.13;81.43
37972;BME280;23794;48.234;8.344;2023-02-14T02:09:31;95904.25;;;-2.09;81.14
37972;BME280;23794;48.234;8.344;2023-02-14T02:11:59;95897.28;;;-2.10;81.01
37972;BME280;23794;48.234;8.344;2023-02-14T02:14:28;95902.69;;;-2.16;81.25
37972;BME280;23794;48.234;8.344;2023-02-14T02:36:45;95886.59;;;-2.21;81.43
37972;BME280;23794;48.234;8.344;2023-02-14T02:42:02;95882.88;;;-2.25;81.54
37972;BME280;23794;48.234;8.344;2023-02-14T02:44:45;95878.88;;;-2.28;81.72
37972;BME280;23794;48.234;8.344;2023-02-14T02:47:21;95883.56;;;-2.09;81.05
37972;BME280;23794;48.234;8.344;2023-02-14T02:55:54;95885.19;;;-2.08;81.25
37972;BME280;23794;48.234;8.344;2023-02-14T02:58:44;95881.47;;;-2.12;81.03
37972;BME280;23794;48.234;8.344;2023-02-14T03:01:15;95898.44;;;-2.22;81.48
37972;BME280;23794;48.234;8.344;2023-02-14T03:03:46;95900.59;;;-2.24;81.15
37972;BME280;23794;48.234;8.344;2023-02-14T03:06:32;95894.69;;;-2.26;81.37
37972;BME280;23794;48.234;8.344;2023-02-14T03:12:04;95886.44;;;-2.35;82.00
37972;BME280;23794;48.234;8.344;2023-02-14T03:14:47;95885.03;;;-2.27;81.24
37972;BME280;23794;48.234;8.344;2023-02-14T03:17:45;95886.38;;;-2.30;81.33
37972;BME280;23794;48.234;8.344;2023-02-14T03:20:23;95881.84;;;-2.29;81.32
37972;BME280;23794;48.234;8.344;2023-02-14T03:33:41;95870.28;;;-2.30;81.41
37972;BME280;23794;48.234;8.344;2023-02-14T03:36:13;95864.88;;;-2.24;81.19
37972;BME280;23794;48.234;8.344;2023-02-14T03:39:06;95871.03;;;-2.19;81.34
37972;BME280;23794;48.234;8.344;2023-02-14T03:41:39;95868.09;;;-2.22;81.25
37972;BME280;23794;48.234;8.344;2023-02-14T03:44:09;95865.44;;;-2.28;81.69
37972;BME280;23794;48.234;8.344;2023-02-14T03:46:46;95869.97;;;-2.23;81.51
37972;BME280;23794;48.234;8.344;2023-02-14T03:49:21;95867.06;;;-2.32;81.64
37972;BME280;23794;48.234;8.344;2023-02-14T03:51:51;95867.34;;;-2.33;82.22
37972;BME280;23794;48.234;8.344;2023-02-14T03:54:21;95863.31;;;-2.31;82.08
37972;BME280;23794;48.234;8.344;2023-02-14T03:56:51;95862.19;;;-2.24;81.72
37972;BME280;23794;48.234;8.344;2023-02-14T03:59:22;95860.88;;;-2.27;81.68
37972;BME280;23794;48.234;8.344;2023-02-14T04:02:02;95859.78;;;-2.26;81.58
37972;BME280;23794;48.234;8.344;2023-02-14T04:04:32;95859.50;;;-2.19;81.65
37972;BME280;23794;48.234;8.344;2023-02-14T04:07:27;95861.94;;;-2.23;81.67
37972;BME280;23794;48.234;8.344;2023-02-14T04:09:53;95861.41;;;-2.25;81.42
37972;BME280;23794;48.234;8.344;2023-02-14T04:12:20;95860.81;;;-2.17;81.09
37972;BME280;23794;48.234;8.344;2023-02-14T04:15:03;95859.69;;;-2.10;80.92
37972;BME280;23794;48.234;8.344;2023-02-14T04:17:29;95856.69;;;-2.04;80.76
37972;BME280;23794;48.234;8.344;2023-02-14T04:20:14;95865.91;;;-2.15;81.23
37972;BME280;23794;48.234;8.344;2023-02-14T04:22:41;95855.72;;;-2.18;81.58
37972;BME280;23794;48.234;8.344;2023-02-14T04:25:07;95857.34;;;-2.17;81.67
37972;BME280;23794;48.234;8.344;2023-02-14T04:27:34;95860.28;;;-2.14;81.51
37972;BME280;23794;48.234;8.344;2023-02-14T04:30:00;95861.59;;;-2.11;81.37
37972;BME280;23794;48.234;8.344;2023-02-14T04:32:27;95863.69;;;-2.08;81.27
37972;BME280;23794;48.234;8.344;2023-02-14T04:34:53;95861.84;;;-2.07;81.28
37972;BME280;23794;48.234;8.344;2023-02-14T04:37:20;95865.09;;;-2.16;81.87
37972;BME280;23794;48.234;8.344;2023-02-14T04:39:46;95861.59;;;-2.11;81.25
37972;BME280;23794;48.234;8.344;2023-02-14T04:42:13;95862.38;;;-2.10;81.27
37972;BME280;23794;48.234;8.344;2023-02-14T04:44:40;95868.00;;;-2.07;81.23
37972;BME280;23794;48.234;8.344;2023-02-14T04:47:07;95867.75;;;-2.10;81.19
37972;BME280;23794;48.234;8.344;2023-02-14T04:49:34;95867.53;;;-2.19;81.32
37972;BME280;23794;48.234;8.344;2023-02-14T04:52:01;95872.09;;;-2.20;81.76
37972;BME280;23794;48.234;8.344;2023-02-14T04:54:27;95870.53;;;-2.26;81.21
37972;BME280;23794;48.234;8.344;2023-02-14T04:56:54;95864.91;;;-2.30;81.31
37972;BME280;23794;48.234;8.344;2023-02-14T04:59:21;95870.03;;;-2.33;81.61
37972;BME280;23794;48.234;8.344;2023-02-14T05:01:50;95873.25;;;-2.31;81.16
37972;BME280;23794;48.234;8.344;2023-02-14T05:04:17;95871.66;;;-2.32;81.25
37972;BME280;23794;48.234;8.344;2023-02-14T05:06:43;95875.13;;;-2.32;81.12
37972;BME280;23794;48.234;8.344;2023-02-14T05:09:10;95869.50;;;-2.35;81.25
37972;BME280;23794;48.234;8.344;2023-02-14T05:11:36;95870.31;;;-2.35;81.52
37972;BME280;23794;48.234;8.344;2023-02-14T05:14:03;95865.78;;;-2.39;81.67
37972;BME280;23794;48.234;8.344;2023-02-14T05:16:30;95869.53;;;-2.40;81.58
37972;BME280;23794;48.234;8.344;2023-02-14T05:18:56;95863.88;;;-2.34;81.54
37972;BME280;23794;48.234;8.344;2023-02-14T05:21:23;95873.75;;;-2.24;80.93
37972;BME280;23794;48.234;8.344;2023-02-14T05:23:49;95866.47;;;-2.18;80.75
37972;BME280;23794;48.234;8.344;2023-02-14T05:26:16;95872.66;;;-2.23;81.12
37972;BME280;23794;48.234;8.344;2023-02-14T05:28:42;95869.16;;;-2.18;80.95
37972;BME280;23794;48.234;8.344;2023-02-14T05:31:09;95872.94;;;-2.24;81.16
37972;BME280;23794;48.234;8.344;2023-02-14T05:33:36;95873.50;;;-2.28;81.36
37972;BME280;23794;48.234;8.344;2023-02-14T05:36:03;95882.03;;;-2.20;80.92
37972;BME280;23794;48.234;8.344;2023-02-14T05:38:30;95878.63;;;-2.31;80.76
37972;BME280;23794;48.234;8.344;2023-02-14T05:40:58;95877.22;;;-2.23;80.88
37972;BME280;23794;48.234;8.344;2023-02-14T05:43:25;95874.03;;;-2.31;81.19
37972;BME280;23794;48.234;8.344;2023-02-14T05:45:52;95879.66;;;-2.27;81.07
37972;BME280;23794;48.234;8.344;2023-02-14T05:48:20;95870.53;;;-2.26;81.19
37972;BME280;23794;48.234;8.344;2023-02-14T05:50:46;95875.09;;;-2.26;81.08
37972;BME280;23794;48.234;8.344;2023-02-14T05:53:13;95881.03;;;-2.30;81.18
37972;BME280;23794;48.234;8.344;2023-02-14T05:55:40;95882.59;;;-2.23;80.75
37972;BME280;23794;48.234;8.344;2023-02-14T05:58:07;95878.28;;;-2.19;80.72
37972;BME280;23794;48.234;8.344;2023-02-14T06:00:33;95886.34;;;-2.19;80.75
37972;BME280;23794;48.234;8.344;2023-02-14T06:03:00;95879.69;;;-2.32;81.02
37972;BME280;23794;48.234;8.344;2023-02-14T06:05:26;95880.25;;;-2.35;81.09
37972;BME280;23794;48.234;8.344;2023-02-14T06:07:53;95874.63;;;-2.34;81.12
37972;BME280;23794;48.234;8.344;2023-02-14T06:10:21;95871.59;;;-2.27;80.83
37972;BME280;23794;48.234;8.344;2023-02-14T06:12:49;95869.75;;;-2.26;80.83
37972;BME280;23794;48.234;8.344;2023-02-14T06:15:17;95869.69;;;-2.21;80.46
37972;BME280;23794;48.234;8.344;2023-02-14T06:17:44;95878.63;;;-2.31;80.92
37972;BME280;23794;48.234;8.344;2023-02-14T06:20:11;95872.97;;;-2.30;80.87
37972;BME280;23794;48.234;8.344;2023-02-14T06:22:37;95876.22;;;-2.33;80.94
37972;BME280;23794;48.234;8.344;2023-02-14T06:25:06;95882.13;;;-2.36;80.91
37972;BME280;23794;48.234;8.344;2023-02-14T06:27:33;95884.28;;;-2.33;80.77
37972;BME280;23794;48.234;8.344;2023-02-14T06:30:00;95884.28;;;-2.38;81.17
37972;BME280;23794;48.234;8.344;2023-02-14T06:32:26;95885.13;;;-2.42;81.08
37972;BME280;23794;48.234;8.344;2023-02-14T06:34:53;95892.38;;;-2.43;81.39
37972;BME280;23794;48.234;8.344;2023-02-14T06:37:19;95889.41;;;-2.41;81.36
37972;BME280;23794;48.234;8.344;2023-02-14T06:39:46;95895.28;;;-2.34;81.06
37972;BME280;23794;48.234;8.344;2023-02-14T06:42:13;95895.56;;;-2.36;80.78
37972;BME280;23794;48.234;8.344;2023-02-14T06:44:39;95889.84;;;-2.24;80.62
37972;BME280;23794;48.234;8.344;2023-02-14T06:47:06;95889.81;;;-2.19;80.49
37972;BME280;23794;48.234;8.344;2023-02-14T06:49:33;95891.13;;;-2.16;80.75
37972;BME280;23794;48.234;8.344;2023-02-14T06:52:00;95899.47;;;-2.18;80.56
37972;BME280;23794;48.234;8.344;2023-02-14T06:54:27;95893.28;;;-2.13;80.35
37972;BME280;23794;48.234;8.344;2023-02-14T06:56:54;95901.81;;;-2.06;80.49
37972;BME280;23794;48.234;8.344;2023-02-14T06:59:21;95902.94;;;-2.12;80.81
37972;BME280;23794;48.234;8.344;2023-02-14T07:01:48;95907.00;;;-2.20;80.82
37972;BME280;23794;48.234;8.344;2023-02-14T07:04:15;95906.25;;;-2.25;80.96
37972;BME280;23794;48.234;8.344;2023-02-14T07:06:44;95906.75;;;-2.18;80.94
37972;BME280;23794;48.234;8.344;2023-02-14T07:09:11;95898.06;;;-2.05;80.30
37972;BME280;23794;48.234;8.344;2023-02-14T07:11:43;95894.84;;;-2.07;80.69
37972;BME280;23794;48.234;8.344;2023-02-14T07:14:10;95904.47;;;-2.01;80.72
37972;BME280;23794;48.234;8.344;2023-02-14T07:16:37;95900.16;;;-1.97;80.51
37972;BME280;23794;48.234;8.344;2023-02-14T07:19:04;95903.09;;;-1.93;80.12
37972;BME280;23794;48.234;8.344;2023-02-14T07:21:31;95906.56;;;-1.87;79.95
37972;BME280;23794;48.234;8.344;2023-02-14T07:23:57;95905.97;;;-1.84;79.96
37972;BME280;23794;48.234;8.344;2023-02-14T07:26:24;95896.00;;;-1.78;79.93
37972;BME280;23794;48.234;8.344;2023-02-14T07:28:50;95888.78;;;-1.83;80.03
37972;BME280;23794;48.234;8.344;2023-02-14T07:31:18;95894.09;;;-1.73;79.93
37972;BME280;23794;48.234;8.344;2023-02-14T07:33:46;95893.50;;;-1.70;79.91
37972;BME280;23794;48.234;8.344;2023-02-14T07:36:13;95900.97;;;-1.61;79.95
37972;BME280;23794;48.234;8.344;2023-02-14T07:38:39;95898.56;;;-1.63;80.05
37972;BME280;23794;48.234;8.344;2023-02-14T07:41:06;95893.97;;;-1.62;80.27
37972;BME280;23794;48.234;8.344;2023-02-14T07:43:32;95884.53;;;-1.55;80.26
37972;BME280;23794;48.234;8.344;2023-02-14T07:46:01;95883.94;;;-1.46;80.25
37972;BME280;23794;48.234;8.344;2023-02-14T07:48:28;95882.19;;;-1.32;79.51
37972;BME280;23794;48.234;8.344;2023-02-14T07:50:58;95871.59;;;-1.23;79.48
37972;BME280;23794;48.234;8.344;2023-02-14T07:53:25;95876.59;;;-1.11;79.39
37972;BME280;23794;48.234;8.344;2023-02-14T07:55:52;95876.97;;;-0.99;79.46
37972;BME280;23794;48.234;8.344;2023-02-14T07:58:18;95877.97;;;-0.90;79.63
37972;BME280;23794;48.234;8.344;2023-02-14T08:00:45;95877.88;;;-0.79;79.67
37972;BME280;23794;48.234;8.344;2023-02-14T08:03:12;95871.78;;;-0.66;79.30
37972;BME280;23794;48.234;8.344;2023-02-14T08:05:39;95868.09;;;-0.51;79.05
37972;BME280;23794;48.234;8.344;2023-02-14T08:08:06;95876.25;;;-0.37;78.96
37972;BME280;23794;48.234;8.344;2023-02-14T08:10:33;95870.53;;;-0.30;78.67
37972;BME280;23794;48.234;8.344;2023-02-14T08:12:59;95874.88;;;-0.15;78.69
37972;BME280;23794;48.234;8.344;2023-02-14T08:15:32;95868.53;;;-0.06;78.32
37972;BME280;23794;48.234;8.344;2023-02-14T08:18:18;95864.03;;;0.09;78.02
37972;BME280;23794;48.234;8.344;2023-02-14T08:20:46;95860.28;;;0.24;78.22
37972;BME280;23794;48.234;8.344;2023-02-14T08:23:16;95857.03;;;0.41;77.91
37972;BME280;23794;48.234;8.344;2023-02-14T08:25:43;95864.47;;;0.49;77.40
37972;BME280;23794;48.234;8.344;2023-02-14T08:28:10;95864.19;;;0.65;77.24
37972;BME280;23794;48.234;8.344;2023-02-14T08:30:38;95862.63;;;0.78;77.07
37972;BME280;23794;48.234;8.344;2023-02-14T08:33:05;95859.03;;;0.82;76.80
37972;BME280;23794;48.234;8.344;2023-02-14T08:35:32;95867.16;;;0.96;76.77
37972;BME280;23794;48.234;8.344;2023-02-14T08:37:58;95863.69;;;1.10;76.32
37972;BME280;23794;48.234;8.344;2023-02-14T08:40:25;95859.84;;;1.25;76.09
37972;BME280;23794;48.234;8.344;2023-02-14T08:42:52;95859.06;;;1.38;76.18
37972;BME280;23794;48.234;8.344;2023-02-14T08:45:20;95866.38;;;1.51;75.76
37972;BME280;23794;48.234;8.344;2023-02-14T08:47:47;95861.13;;;1.69;75.51
37972;BME280;23794;48.234;8.344;2023-02-14T08:50:15;95859.69;;;1.85;75.59
37972;BME280;23794;48.234;8.344;2023-02-14T08:52:43;95860.63;;;2.04;75.43
37972;BME280;23794;48.234;8.344;2023-02-14T08:55:11;95851.38;;;2.19;75.04
37972;BME280;23794;48.234;8.344;2023-02-14T08:57:38;95850.38;;;2.37;75.11
37972;BME280;23794;48.234;8.344;2023-02-14T09:00:06;95848.75;;;2.59;74.79
37972;BME280;23794;48.234;8.344;2023-02-14T09:02:33;95843.47;;;2.76;74.39
37972;BME280;23794;48.234;8.344;2023-02-14T09:04:59;95848.66;;;2.95;74.25
37972;BME280;23794;48.234;8.344;2023-02-14T09:07:26;95843.16;;;3.18;73.84
37972;BME280;23794;48.234;8.344;2023-02-14T09:09:53;95841.97;;;3.33;73.67
37972;BME280;23794;48.234;8.344;2023-02-14T09:12:19;95832.75;;;3.52;73.50
37972;BME280;23794;48.234;8.344;2023-02-14T09:14:46;95838.22;;;3.69;73.15
37972;BME280;23794;48.234;8.344;2023-02-14T09:17:13;95836.94;;;3.84;72.62
37972;BME280;23794;48.234;8.344;2023-02-14T09:19:41;95832.31;;;4.02;72.57
37972;BME280;23794;48.234;8.344;2023-02-14T09:22:09;95828.50;;;4.21;71.81
37972;BME280;23794;48.234;8.344;2023-02-14T09:24:38;95834.84;;;4.43;71.13
37972;BME280;23794;48.234;8.344;2023-02-14T09:27:05;95832.91;;;4.61;71.00
37972;BME280;23794;48.234;8.344;2023-02-14T09:29:32;95829.38;;;4.78;70.32
37972;BME280;23794;48.234;8.344;2023-02-14T09:32:00;95828.97;;;4.97;69.59
37972;BME280;23794;48.234;8.344;2023-02-14T09:34:27;95832.94;;;5.17;69.14
37972;BME280;23794;48.234;8.344;2023-02-14T09:37:13;95825.97;;;5.37;68.80
37972;BME280;23794;48.234;8.344;2023-02-14T09:39:58;95823.50;;;5.53;68.43
37972;BME280;23794;48.234;8.344;2023-02-14T09:42:59;95825.69;;;5.60;67.13
37972;BME280;23794;48.234;8.344;2023-02-14T09:45:29;95821.28;;;5.46;68.21
37972;BME280;23794;48.234;8.344;2023-02-14T09:50:46;95823.25;;;5.67;67.41
37972;BME280;23794;48.234;8.344;2023-02-14T09:59:24;95823.13;;;5.85;66.52
37972;BME280;23794;48.234;8.344;2023-02-14T10:05:21;95820.16;;;5.98;66.18
37972;BME280;23794;48.234;8.344;2023-02-14T10:11:02;95809.00;;;6.46;66.02
37972;BME280;23794;48.234;8.344;2023-02-14T10:13:40;95810.56;;;6.68;65.40
37972;BME280;23794;48.234;8.344;2023-02-14T10:16:36;95810.03;;;6.87;64.64
37972;BME280;23794;48.234;8.344;2023-02-14T10:20:10;95805.31;;;7.09;64.15
37972;BME280;23794;48.234;8.344;2023-02-14T10:22:16;95802.59;;;7.34;64.07
37972;BME280;23794;48.234;8.344;2023-02-14T10:24:50;95805.66;;;7.57;62.48
37972;BME280;23794;48.234;8.344;2023-02-14T10:29:50;95794.13;;;8.01;62.38
37972;BME280;23794;48.234;8.344;2023-02-14T10:35:30;95784.47;;;8.32;61.83
37972;BME280;23794;48.234;8.344;2023-02-14T10:38:25;95785.81;;;8.54;60.61
37972;BME280;23794;48.234;8.344;2023-02-14T10:41:37;95782.25;;;8.82;59.10
37972;BME280;23794;48.234;8.344;2023-02-14T10:44:37;95778.91;;;9.05;58.66
37972;BME280;23794;48.234;8.344;2023-02-14T10:47:28;95768.00;;;9.21;58.02
37972;BME280;23794;48.234;8.344;2023-02-14T10:55:52;95765.28;;;9.72;56.65
37972;BME280;23794;48.234;8.344;2023-02-14T10:58:23;95763.38;;;9.92;56.96
37972;BME280;23794;48.234;8.344;2023-02-14T11:03:21;95753.22;;;10.32;56.36
37972;BME280;23794;48.234;8.344;2023-02-14T11:05:49;95744.13;;;10.48;56.33
37972;BME280;23794;48.234;8.344;2023-02-14T11:08:30;95729.97;;;10.65;55.09
37972;BME280;23794;48.234;8.344;2023-02-14T11:11:16;95733.31;;;10.78;55.21
37972;BME280;23794;48.234;8.344;2023-02-14T11:13:44;95728.09;;;10.93;55.03
37972;BME280;23794;48.234;8.344;2023-02-14T11:16:18;95725.94;;;11.05;53.04
37972;BME280;23794;48.234;8.344;2023-02-14T11:19:06;95722.09;;;11.10;53.28
37972;BME280;23794;48.234;8.344;2023-02-14T11:21:38;95717.66;;;11.25;53.11
37972;BME280;23794;48.234;8.344;2023-02-14T11:24:29;95721.75;;;11.39;53.43
37972;BME280;23794;48.234;8.344;2023-02-14T11:26:59;95713.59;;;11.42;53.82
37972;BME280;23794;48.234;8.344;2023-02-14T11:29:34;95714.91;;;11.52;51.72
37972;BME280;23794;48.234;8.344;2023-02-14T11:34:46;95704.28;;;11.81;51.11
37972;BME280;23794;48.234;8.344;2023-02-14T11:39:47;95695.88;;;12.31;50.98
37972;BME280;23794;48.234;8.344;2023-02-14T11:42:43;95692.47;;;12.41;49.97
37972;BME280;23794;48.234;8.344;2023-02-14T11:45:38;95688.69;;;12.53;48.50
37972;BME280;23794;48.234;8.344;2023-02-14T11:48:21;95676.25;;;12.70;49.19
37972;BME280;23794;48.234;8.344;2023-02-14T11:51:08;95685.72;;;12.73;48.41
37972;BME280;23794;48.234;8.344;2023-02-14T11:53:46;95695.09;;;12.68;45.18
37972;BME280;23794;48.234;8.344;2023-02-14T11:56:15;95685.06;;;12.87;47.20
37972;BME280;23794;48.234;8.344;2023-02-14T11:58:57;95678.94;;;13.08;46.73
37972;BME280;23794;48.234;8.344;2023-02-14T12:01:27;95678.88;;;13.01;43.91
37972;BME280;23794;48.234;8.344;2023-02-14T12:03:58;95668.34;;;13.14;43.81
37972;BME280;23794;48.234;8.344;2023-02-14T12:06:28;95674.75;;;13.29;43.43
37972;BME280;23794;48.234;8.344;2023-02-14T12:11:57;95663.88;;;13.50;41.42
37972;BME280;23794;48.234;8.344;2023-02-14T12:14:28;95663.16;;;13.57;41.27
37972;BME280;23794;48.234;8.344;2023-02-14T12:17:01;95656.44;;;13.58;39.50
37972;BME280;23794;48.234;8.344;2023-02-14T12:19:41;95653.81;;;13.76;38.17
37972;BME280;23794;48.234;8.344;2023-02-14T12:22:14;95653.78;;;13.69;37.01
37972;BME280;23794;48.234;8.344;2023-02-14T12:25:05;95651.88;;;13.84;37.15
37972;BME280;23794;48.234;8.344;2023-02-14T12:27:57;95650.38;;;14.01;37.77
37972;BME280;23794;48.234;8.344;2023-02-14T12:30:30;95647.69;;;14.30;38.53
37972;BME280;23794;48.234;8.344;2023-02-14T12:32:57;95644.19;;;14.47;37.68
37972;BME280;23794;48.234;8.344;2023-02-14T12:43:44;95632.72;;;14.27;33.96
37972;BME280;23794;48.234;8.344;2023-02-14T12:52:00;95622.53;;;14.49;33.97
37972;BME280;23794;48.234;8.344;2023-02-14T13:02:55;95613.88;;;14.51;32.79
37972;BME280;23794;48.234;8.344;2023-02-14T13:05:48;95608.75;;;14.53;33.24
37972;BME280;23794;48.234;8.344;2023-02-14T13:09:03;95612.69;;;14.59;33.33
37972;BME280;23794;48.234;8.344;2023-02-14T13:15:00;95606.00;;;14.57;33.18
37972;BME280;23794;48.234;8.344;2023-02-14T13:18:06;95598.13;;;14.62;33.13
37972;BME280;23794;48.234;8.344;2023-02-14T13:20:39;95596.94;;;14.63;32.78
37972;BME280;23794;48.234;8.344;2023-02-14T13:23:15;95592.22;;;14.67;33.53
37972;BME280;23794;48.234;8.344;2023-02-14T13:26:34;95593.41;;;14.92;33.52
37972;BME280;23794;48.234;8.344;2023-02-14T13:28:36;95583.16;;;14.96;32.77
37972;BME280;23794;48.234;8.344;2023-02-14T13:31:03;95587.88;;;14.92;31.64
37972;BME280;23794;48.234;8.344;2023-02-14T13:33:41;95577.25;;;14.97;30.00
37972;BME280;23794;48.234;8.344;2023-02-14T13:36:11;95582.34;;;14.99;28.54
37972;BME280;23794;48.234;8.344;2023-02-14T13:38:44;95574.88;;;15.10;24.66
37972;BME280;23794;48.234;8.344;2023-02-14T13:41:13;95568.50;;;15.24;27.76
37972;BME280;23794;48.234;8.344;2023-02-14T13:43:45;95570.09;;;15.18;27.96
37972;BME280;23794;48.234;8.344;2023-02-14T13:46:13;95562.63;;;15.22;27.61
37972;BME280;23794;48.234;8.344;2023-02-14T13:48:41;95565.78;;;15.13;25.17
37972;BME280;23794;48.234;8.344;2023-02-14T13:51:19;95572.88;;;15.18;26.21
37972;BME280;23794;48.234;8.344;2023-02-14T13:53:47;95557.44;;;15.31;28.01
37972;BME280;23794;48.234;8.344;2023-02-14T13:58:48;95566.50;;;15.39;26.01
37972;BME280;23794;48.234;8.344;2023-02-14T14:01:35;95555.09;;;15.34;23.69
37972;BME280;23794;48.234;8.344;2023-02-14T14:20:02;95555.19;;;14.94;23.31
37972;BME280;23794;48.234;8.344;2023-02-14T14:22:29;95559.09;;;14.82;24.62
37972;BME280;23794;48.234;8.344;2023-02-14T14:25:05;95554.38;;;14.75;25.70
37972;BME280;23794;48.234;8.344;2023-02-14T14:27:39;95549.69;;;14.40;25.09
37972;BME280;23794;48.234;8.344;2023-02-14T14:30:18;95555.94;;;14.15;27.90
37972;BME280;23794;48.234;8.344;2023-02-14T14:32:46;95559.84;;;13.96;25.63
37972;BME280;23794;48.234;8.344;2023-02-14T14:35:17;95556.25;;;13.77;27.42
37972;BME280;23794;48.234;8.344;2023-02-14T14:37:49;95561.63;;;13.48;28.22
37972;BME280;23794;48.234;8.344;2023-02-14T14:40:27;95559.50;;;13.16;28.07
37972;BME280;23794;48.234;8.344;2023-02-14T14:43:04;95566.06;;;12.93;29.01
37972;BME280;23794;48.234;8.344;2023-02-14T14:45:31;95568.63;;;12.68;30.02
37972;BME280;23794;48.234;8.344;2023-02-14T14:48:02;95560.44;;;12.27;28.90
37972;BME280;23794;48.234;8.344;2023-02-14T14:50:34;95560.25;;;12.05;30.45
37972;BME280;23794;48.234;8.344;2023-02-14T14:53:04;95558.00;;;11.77;31.69
37972;BME280;23794;48.234;8.344;2023-02-14T14:55:34;95569.59;;;11.63;33.67
37972;BME280;23794;48.234;8.344;2023-02-14T14:58:06;95568.50;;;11.37;32.91
37972;BME280;23794;48.234;8.344;2023-02-14T15:00:37;95567.84;;;11.47;33.28
37972;BME280;23794;48.234;8.344;2023-02-14T15:05:43;95573.72;;;11.15;33.71
37972;BME280;23794;48.234;8.344;2023-02-14T15:10:52;95566.75;;;10.68;35.70
37972;BME280;23794;48.234;8.344;2023-02-14T15:13:31;95569.44;;;10.41;36.77
37972;BME280;23794;48.234;8.344;2023-02-14T15:16:27;95566.25;;;10.12;37.15
37972;BME280;23794;48.234;8.344;2023-02-14T15:18:58;95564.28;;;9.89;37.15
37972;BME280;23794;48.234;8.344;2023-02-14T15:21:26;95572.16;;;9.71;36.89
37972;BME280;23794;48.234;8.344;2023-02-14T15:23:53;95561.00;;;9.60;37.66
37972;BME280;23794;48.234;8.344;2023-02-14T15:26:27;95565.56;;;9.53;37.05
37972;BME280;23794;48.234;8.344;2023-02-14T15:29:06;95565.28;;;9.38;38.16
37972;BME280;23794;48.234;8.344;2023-02-14T15:31:38;95563.53;;;9.30;38.61
37972;BME280;23794;48.234;8.344;2023-02-14T15:34:06;95568.84;;;9.23;39.36
37972;BME280;23794;48.234;8.344;2023-02-14T15:36:35;95572.84;;;9.09;39.49